LKHC weather

Hořice Airport
Hořice, Hradec Králové Region, Czechia

Public forecast

Using degrees Celsius for public forecast. Weather courtesy of forecast.io.

METAR (pilot weather report)

Closest report is Pardubice Airport, 21.6 nm (39.9 km) SSE. Retrieved 2019/05/24 10:00 UTC (44 minutes ago):

LKPD 241000Z VRB04KT CAVOK 17/05 Q1015 NOSIG RMK BLU BLU

TAF (pilot weather forecast)

Closest forecast is Pardubice Airport, 21.6 nm (39.9 km) SSE. Retrieved 2019/05/24 06:05 UTC (5 hours ago):

TAF LKPD 240500Z 2406/2506 27004KT CAVOK